This is the latest recevied weather packets stored in our database for station/object IW2MUC-12. If no packets are shown the sender has not sent any weather packets the latest 10 day(s).
| Time | Temp. | Humidity | Pressure | Rain* | Wind** | Luminosity | Snow |
|---|---|---|---|---|---|---|---|
| 1788166975 | 30.56° C | 47% | 989 hPa | - | - | - | - |
| 1788166371 | 28.89° C | 47% | 989 hPa | - | - | - | - |
| 1788165767 | 28.33° C | 48% | 989 hPa | - | - | - | - |
| 1788165163 | 27.22° C | 51% | 990 hPa | - | - | - | - |
| 1788164560 | 27.22° C | 51% | 991 hPa | - | - | - | - |
| 1788163955 | 26.11° C | 53% | 990 hPa | - | - | - | - |
| 1788163351 | 25.56° C | 56% | 989 hPa | - | - | - | - |
| 1788162747 | 25° C | 56% | 989 hPa | - | - | - | - |
| 1788162143 | 24.44° C | 56% | 989 hPa | - | - | - | - |
| 1788161539 | 24.44° C | 56% | 988 hPa | - | - | - | - |
| 1788160935 | 23.89° C | 58% | 987 hPa | - | - | - | - |
| 1788160326 | 23.89° C | 60% | 987 hPa | - | - | - | - |
| 1788159722 | 23.89° C | 60% | 988 hPa | - | - | - | - |
| 1788159118 | 23.33° C | 61% | 989 hPa | - | - | - | - |
| 1788158514 | 23.33° C | 61% | 989 hPa | - | - | - | - |
| 1788008570 | 30° C | 55% | 987 hPa | - | - | - | - |
| 1788007966 | 28.33° C | 58% | 987 hPa | - | - | - | - |
| 1788007362 | 26.11° C | 63% | 987 hPa | - | - | - | - |
| 1788006758 | 25° C | 62% | 986 hPa | - | - | - | - |
| 1787992591 | 27.78° C | 58% | 988 hPa | - | - | - | - |
| 1787991987 | 27.22° C | 63% | 988 hPa | - | - | - | - |
| 1787991383 | 26.67° C | 65% | 988 hPa | - | - | - | - |
| 1787990779 | 26.11° C | 66% | 988 hPa | - | - | - | - |
| 1787990175 | 25.56° C | 66% | 988 hPa | - | - | - | - |
| 1787989571 | 25.56° C | 67% | 988 hPa | - | - | - | - |
* Rain since midnight (hover to see other rain measurements)
** Current wind speed in m/s (hover to see current wind gust speed)